sensor_id;sensor_type;location;lat;lon;timestamp;P1;durP1;ratioP1;P2;durP2;ratioP2
24383;SDS011;12504;52.870;8.798;2023-02-18T00:00:15;10.05;;;2.78;;
24383;SDS011;12504;52.870;8.798;2023-02-18T00:02:43;8.10;;;2.58;;
24383;SDS011;12504;52.870;8.798;2023-02-18T00:05:09;7.30;;;2.72;;
24383;SDS011;12504;52.870;8.798;2023-02-18T00:07:36;13.80;;;2.97;;
24383;SDS011;12504;52.870;8.798;2023-02-18T00:10:03;16.08;;;4.13;;
24383;SDS011;12504;52.870;8.798;2023-02-18T00:12:30;11.00;;;2.47;;
24383;SDS011;12504;52.870;8.798;2023-02-18T00:14:56;13.50;;;3.85;;
24383;SDS011;12504;52.870;8.798;2023-02-18T00:17:22;7.82;;;2.55;;
24383;SDS011;12504;52.870;8.798;2023-02-18T00:19:48;15.75;;;3.50;;
24383;SDS011;12504;52.870;8.798;2023-02-18T00:22:14;6.97;;;2.50;;
24383;SDS011;12504;52.870;8.798;2023-02-18T00:24:39;12.10;;;2.42;;
24383;SDS011;12504;52.870;8.798;2023-02-18T00:27:05;6.63;;;2.42;;
24383;SDS011;12504;52.870;8.798;2023-02-18T00:29:31;14.57;;;2.88;;
24383;SDS011;12504;52.870;8.798;2023-02-18T00:31:56;8.63;;;3.17;;
24383;SDS011;12504;52.870;8.798;2023-02-18T00:34:22;8.07;;;2.58;;
24383;SDS011;12504;52.870;8.798;2023-02-18T00:36:48;8.52;;;3.20;;
24383;SDS011;12504;52.870;8.798;2023-02-18T00:39:14;18.27;;;3.67;;
24383;SDS011;12504;52.870;8.798;2023-02-18T00:41:40;10.85;;;3.47;;
24383;SDS011;12504;52.870;8.798;2023-02-18T00:44:06;14.10;;;2.58;;
24383;SDS011;12504;52.870;8.798;2023-02-18T00:46:32;13.70;;;2.25;;
24383;SDS011;12504;52.870;8.798;2023-02-18T00:48:59;12.43;;;2.90;;
24383;SDS011;12504;52.870;8.798;2023-02-18T00:51:25;11.23;;;3.33;;
24383;SDS011;12504;52.870;8.798;2023-02-18T00:53:51;9.70;;;2.03;;
24383;SDS011;12504;52.870;8.798;2023-02-18T00:56:17;11.88;;;2.72;;
24383;SDS011;12504;52.870;8.798;2023-02-18T00:58:43;4.38;;;2.30;;
24383;SDS011;12504;52.870;8.798;2023-02-18T01:01:09;10.15;;;2.97;;
24383;SDS011;12504;52.870;8.798;2023-02-18T01:03:36;11.73;;;1.80;;
24383;SDS011;12504;52.870;8.798;2023-02-18T01:06:04;18.33;;;4.32;;
24383;SDS011;12504;52.870;8.798;2023-02-18T01:08:31;12.52;;;2.38;;
24383;SDS011;12504;52.870;8.798;2023-02-18T01:10:59;13.02;;;2.33;;
24383;SDS011;12504;52.870;8.798;2023-02-18T01:13:26;13.05;;;3.63;;
24383;SDS011;12504;52.870;8.798;2023-02-18T01:15:51;6.10;;;1.95;;
24383;SDS011;12504;52.870;8.798;2023-02-18T01:18:18;9.80;;;2.88;;
24383;SDS011;12504;52.870;8.798;2023-02-18T01:20:44;9.50;;;3.78;;
24383;SDS011;12504;52.870;8.798;2023-02-18T01:23:11;8.85;;;2.40;;
24383;SDS011;12504;52.870;8.798;2023-02-18T01:25:38;7.18;;;2.42;;
24383;SDS011;12504;52.870;8.798;2023-02-18T01:28:07;13.55;;;2.63;;
24383;SDS011;12504;52.870;8.798;2023-02-18T01:30:33;8.18;;;2.50;;
24383;SDS011;12504;52.870;8.798;2023-02-18T01:32:59;13.13;;;4.57;;
24383;SDS011;12504;52.870;8.798;2023-02-18T01:35:25;16.48;;;3.10;;
24383;SDS011;12504;52.870;8.798;2023-02-18T01:37:53;17.85;;;2.08;;
24383;SDS011;12504;52.870;8.798;2023-02-18T01:40:20;13.43;;;2.85;;
24383;SDS011;12504;52.870;8.798;2023-02-18T01:42:48;5.68;;;2.30;;
24383;SDS011;12504;52.870;8.798;2023-02-18T01:48:10;7.50;;;2.60;;
24383;SDS011;12504;52.870;8.798;2023-02-18T01:53:39;5.18;;;1.95;;
24383;SDS011;12504;52.870;8.798;2023-02-18T01:56:10;6.85;;;2.42;;
24383;SDS011;12504;52.870;8.798;2023-02-18T01:58:40;4.47;;;1.95;;
24383;SDS011;12504;52.870;8.798;2023-02-18T02:01:07;5.65;;;2.40;;
24383;SDS011;12504;52.870;8.798;2023-02-18T02:03:34;11.00;;;2.20;;
24383;SDS011;12504;52.870;8.798;2023-02-18T02:05:59;10.48;;;3.25;;
24383;SDS011;12504;52.870;8.798;2023-02-18T02:08:25;9.30;;;3.00;;
24383;SDS011;12504;52.870;8.798;2023-02-18T02:16:13;14.75;;;4.60;;
24383;SDS011;12504;52.870;8.798;2023-02-18T02:19:07;6.57;;;2.03;;
24383;SDS011;12504;52.870;8.798;2023-02-18T02:36:36;5.88;;;1.75;;
24383;SDS011;12504;52.870;8.798;2023-02-18T02:39:29;9.00;;;2.47;;
24383;SDS011;12504;52.870;8.798;2023-02-18T02:47:18;7.13;;;2.75;;
24383;SDS011;12504;52.870;8.798;2023-02-18T02:53:01;9.52;;;2.75;;
24383;SDS011;12504;52.870;8.798;2023-02-18T02:55:30;8.88;;;2.47;;
24383;SDS011;12504;52.870;8.798;2023-02-18T02:57:56;18.95;;;2.65;;
24383;SDS011;12504;52.870;8.798;2023-02-18T03:03:31;10.82;;;2.20;;
24383;SDS011;12504;52.870;8.798;2023-02-18T03:11:16;11.45;;;2.78;;
24383;SDS011;12504;52.870;8.798;2023-02-18T03:16:45;5.35;;;1.75;;
24383;SDS011;12504;52.870;8.798;2023-02-18T03:19:23;15.18;;;4.82;;
24383;SDS011;12504;52.870;8.798;2023-02-18T03:21:55;9.52;;;2.80;;
24383;SDS011;12504;52.870;8.798;2023-02-18T03:24:43;8.00;;;2.08;;
24383;SDS011;12504;52.870;8.798;2023-02-18T03:27:23;7.95;;;2.22;;
24383;SDS011;12504;52.870;8.798;2023-02-18T03:29:54;8.40;;;2.20;;
24383;SDS011;12504;52.870;8.798;2023-02-18T03:32:24;12.05;;;2.08;;
24383;SDS011;12504;52.870;8.798;2023-02-18T03:34:53;5.38;;;2.40;;
24383;SDS011;12504;52.870;8.798;2023-02-18T03:37:23;7.18;;;2.38;;
24383;SDS011;12504;52.870;8.798;2023-02-18T03:39:54;5.60;;;1.75;;
24383;SDS011;12504;52.870;8.798;2023-02-18T03:42:28;7.70;;;2.58;;
24383;SDS011;12504;52.870;8.798;2023-02-18T03:44:54;8.60;;;2.15;;
24383;SDS011;12504;52.870;8.798;2023-02-18T03:47:21;8.32;;;3.38;;
24383;SDS011;12504;52.870;8.798;2023-02-18T03:49:48;7.47;;;2.50;;
24383;SDS011;12504;52.870;8.798;2023-02-18T03:52:14;11.85;;;2.30;;
24383;SDS011;12504;52.870;8.798;2023-02-18T03:54:39;27.55;;;4.75;;
24383;SDS011;12504;52.870;8.798;2023-02-18T03:57:07;10.63;;;2.33;;
24383;SDS011;12504;52.870;8.798;2023-02-18T03:59:33;3.70;;;2.47;;
24383;SDS011;12504;52.870;8.798;2023-02-18T04:01:58;11.68;;;2.55;;
24383;SDS011;12504;52.870;8.798;2023-02-18T04:04:25;7.97;;;2.28;;
24383;SDS011;12504;52.870;8.798;2023-02-18T04:06:51;14.18;;;2.60;;
24383;SDS011;12504;52.870;8.798;2023-02-18T04:09:16;6.47;;;2.00;;
24383;SDS011;12504;52.870;8.798;2023-02-18T04:11:42;5.93;;;2.30;;
24383;SDS011;12504;52.870;8.798;2023-02-18T04:14:08;11.55;;;3.03;;
24383;SDS011;12504;52.870;8.798;2023-02-18T04:16:37;7.75;;;3.10;;
24383;SDS011;12504;52.870;8.798;2023-02-18T04:19:02;7.28;;;2.42;;
24383;SDS011;12504;52.870;8.798;2023-02-18T04:21:28;8.77;;;2.40;;
24383;SDS011;12504;52.870;8.798;2023-02-18T04:23:53;10.60;;;3.90;;
24383;SDS011;12504;52.870;8.798;2023-02-18T04:26:19;10.38;;;4.55;;
24383;SDS011;12504;52.870;8.798;2023-02-18T04:28:45;11.43;;;2.22;;
24383;SDS011;12504;52.870;8.798;2023-02-18T04:31:10;7.80;;;2.80;;
24383;SDS011;12504;52.870;8.798;2023-02-18T04:33:36;23.48;;;3.30;;
24383;SDS011;12504;52.870;8.798;2023-02-18T04:36:02;8.32;;;2.65;;
24383;SDS011;12504;52.870;8.798;2023-02-18T04:38:27;11.18;;;3.33;;
24383;SDS011;12504;52.870;8.798;2023-02-18T04:40:53;10.25;;;2.97;;
24383;SDS011;12504;52.870;8.798;2023-02-18T04:43:19;9.70;;;2.95;;
24383;SDS011;12504;52.870;8.798;2023-02-18T04:45:44;19.63;;;3.42;;
24383;SDS011;12504;52.870;8.798;2023-02-18T04:48:10;9.68;;;2.78;;
24383;SDS011;12504;52.870;8.798;2023-02-18T04:50:36;11.63;;;3.92;;
24383;SDS011;12504;52.870;8.798;2023-02-18T04:53:01;6.53;;;3.00;;
24383;SDS011;12504;52.870;8.798;2023-02-18T04:55:27;7.68;;;4.00;;
24383;SDS011;12504;52.870;8.798;2023-02-18T04:57:53;10.20;;;4.05;;
24383;SDS011;12504;52.870;8.798;2023-02-18T05:00:19;13.10;;;3.95;;
24383;SDS011;12504;52.870;8.798;2023-02-18T05:02:45;10.02;;;3.58;;
24383;SDS011;12504;52.870;8.798;2023-02-18T05:05:12;12.65;;;3.47;;
24383;SDS011;12504;52.870;8.798;2023-02-18T05:07:38;10.23;;;4.10;;
24383;SDS011;12504;52.870;8.798;2023-02-18T05:10:05;10.95;;;3.70;;
24383;SDS011;12504;52.870;8.798;2023-02-18T05:12:31;19.10;;;4.93;;
24383;SDS011;12504;52.870;8.798;2023-02-18T05:14:57;16.75;;;4.70;;
24383;SDS011;12504;52.870;8.798;2023-02-18T05:17:23;20.05;;;4.82;;
24383;SDS011;12504;52.870;8.798;2023-02-18T05:19:48;17.75;;;4.53;;
24383;SDS011;12504;52.870;8.798;2023-02-18T05:22:14;15.93;;;3.95;;
24383;SDS011;12504;52.870;8.798;2023-02-18T05:24:40;12.32;;;6.20;;
24383;SDS011;12504;52.870;8.798;2023-02-18T05:27:06;16.35;;;4.47;;
24383;SDS011;12504;52.870;8.798;2023-02-18T05:29:31;10.13;;;5.10;;
24383;SDS011;12504;52.870;8.798;2023-02-18T05:31:57;10.50;;;4.47;;
24383;SDS011;12504;52.870;8.798;2023-02-18T05:34:23;14.13;;;5.45;;
24383;SDS011;12504;52.870;8.798;2023-02-18T05:36:49;9.73;;;4.28;;
24383;SDS011;12504;52.870;8.798;2023-02-18T05:39:14;22.20;;;6.97;;
24383;SDS011;12504;52.870;8.798;2023-02-18T05:41:40;12.35;;;5.57;;
24383;SDS011;12504;52.870;8.798;2023-02-18T05:44:06;12.82;;;5.80;;
24383;SDS011;12504;52.870;8.798;2023-02-18T05:46:50;12.80;;;5.28;;
24383;SDS011;12504;52.870;8.798;2023-02-18T05:49:15;15.20;;;5.60;;
24383;SDS011;12504;52.870;8.798;2023-02-18T05:51:41;17.50;;;7.88;;
24383;SDS011;12504;52.870;8.798;2023-02-18T05:54:07;26.67;;;8.02;;
24383;SDS011;12504;52.870;8.798;2023-02-18T05:56:33;21.92;;;8.43;;
24383;SDS011;12504;52.870;8.798;2023-02-18T05:58:59;22.65;;;8.25;;
24383;SDS011;12504;52.870;8.798;2023-02-18T06:01:24;21.13;;;10.13;;
24383;SDS011;12504;52.870;8.798;2023-02-18T06:03:50;20.25;;;10.02;;
24383;SDS011;12504;52.870;8.798;2023-02-18T06:06:16;23.90;;;9.88;;
24383;SDS011;12504;52.870;8.798;2023-02-18T06:08:41;16.15;;;8.48;;
24383;SDS011;12504;52.870;8.798;2023-02-18T06:11:07;22.40;;;9.38;;
24383;SDS011;12504;52.870;8.798;2023-02-18T06:13:33;30.67;;;12.43;;
24383;SDS011;12504;52.870;8.798;2023-02-18T06:15:58;26.83;;;11.93;;
24383;SDS011;12504;52.870;8.798;2023-02-18T06:18:24;29.38;;;10.45;;
24383;SDS011;12504;52.870;8.798;2023-02-18T06:20:50;24.52;;;13.02;;
24383;SDS011;12504;52.870;8.798;2023-02-18T06:23:17;26.48;;;12.60;;
24383;SDS011;12504;52.870;8.798;2023-02-18T06:25:43;31.35;;;12.93;;
24383;SDS011;12504;52.870;8.798;2023-02-18T06:28:09;34.63;;;12.88;;
24383;SDS011;12504;52.870;8.798;2023-02-18T06:30:35;28.10;;;12.43;;
24383;SDS011;12504;52.870;8.798;2023-02-18T06:33:01;38.05;;;15.88;;
24383;SDS011;12504;52.870;8.798;2023-02-18T06:35:29;33.97;;;15.38;;
24383;SDS011;12504;52.870;8.798;2023-02-18T06:37:55;33.47;;;14.43;;
24383;SDS011;12504;52.870;8.798;2023-02-18T06:40:21;36.35;;;15.30;;
24383;SDS011;12504;52.870;8.798;2023-02-18T06:42:47;41.85;;;15.23;;
24383;SDS011;12504;52.870;8.798;2023-02-18T06:45:13;39.53;;;16.33;;
24383;SDS011;12504;52.870;8.798;2023-02-18T06:47:38;31.95;;;15.63;;
24383;SDS011;12504;52.870;8.798;2023-02-18T06:50:04;41.05;;;16.83;;
24383;SDS011;12504;52.870;8.798;2023-02-18T06:52:30;35.75;;;18.58;;
24383;SDS011;12504;52.870;8.798;2023-02-18T06:54:57;39.75;;;17.75;;
24383;SDS011;12504;52.870;8.798;2023-02-18T06:57:23;38.13;;;17.70;;
24383;SDS011;12504;52.870;8.798;2023-02-18T06:59:48;37.85;;;18.48;;
24383;SDS011;12504;52.870;8.798;2023-02-18T07:02:14;46.45;;;20.83;;
24383;SDS011;12504;52.870;8.798;2023-02-18T07:04:40;39.38;;;19.67;;
24383;SDS011;12504;52.870;8.798;2023-02-18T07:07:06;48.00;;;20.25;;
24383;SDS011;12504;52.870;8.798;2023-02-18T07:09:32;36.33;;;18.02;;
24383;SDS011;12504;52.870;8.798;2023-02-18T07:11:57;43.40;;;20.83;;
24383;SDS011;12504;52.870;8.798;2023-02-18T07:14:23;35.28;;;19.02;;
24383;SDS011;12504;52.870;8.798;2023-02-18T07:16:49;43.72;;;20.70;;
24383;SDS011;12504;52.870;8.798;2023-02-18T07:19:15;48.38;;;20.80;;
24383;SDS011;12504;52.870;8.798;2023-02-18T07:21:41;44.42;;;22.33;;
24383;SDS011;12504;52.870;8.798;2023-02-18T07:24:07;47.92;;;21.23;;
24383;SDS011;12504;52.870;8.798;2023-02-18T07:26:33;42.58;;;20.48;;
24383;SDS011;12504;52.870;8.798;2023-02-18T07:28:58;46.17;;;21.85;;
24383;SDS011;12504;52.870;8.798;2023-02-18T07:31:24;50.08;;;22.05;;
24383;SDS011;12504;52.870;8.798;2023-02-18T07:33:50;49.28;;;20.98;;
24383;SDS011;12504;52.870;8.798;2023-02-18T07:36:15;47.38;;;22.10;;
24383;SDS011;12504;52.870;8.798;2023-02-18T07:38:41;40.53;;;19.70;;
24383;SDS011;12504;52.870;8.798;2023-02-18T07:41:11;47.17;;;20.42;;
24383;SDS011;12504;52.870;8.798;2023-02-18T07:43:41;44.97;;;20.35;;
24383;SDS011;12504;52.870;8.798;2023-02-18T07:46:06;49.83;;;21.88;;
24383;SDS011;12504;52.870;8.798;2023-02-18T07:48:32;41.70;;;20.65;;
24383;SDS011;12504;52.870;8.798;2023-02-18T07:50:58;43.97;;;21.17;;
24383;SDS011;12504;52.870;8.798;2023-02-18T07:53:23;43.35;;;18.92;;
24383;SDS011;12504;52.870;8.798;2023-02-18T07:55:49;34.35;;;17.13;;
24383;SDS011;12504;52.870;8.798;2023-02-18T07:58:15;34.63;;;14.45;;
24383;SDS011;12504;52.870;8.798;2023-02-18T08:00:41;35.97;;;13.25;;
24383;SDS011;12504;52.870;8.798;2023-02-18T08:03:07;30.13;;;13.23;;
24383;SDS011;12504;52.870;8.798;2023-02-18T08:05:32;30.38;;;13.05;;
24383;SDS011;12504;52.870;8.798;2023-02-18T08:07:58;24.27;;;10.80;;
24383;SDS011;12504;52.870;8.798;2023-02-18T08:10:24;24.00;;;11.90;;
24383;SDS011;12504;52.870;8.798;2023-02-18T08:12:50;23.42;;;10.93;;
24383;SDS011;12504;52.870;8.798;2023-02-18T08:15:15;20.63;;;9.65;;
24383;SDS011;12504;52.870;8.798;2023-02-18T08:17:41;24.65;;;9.88;;
24383;SDS011;12504;52.870;8.798;2023-02-18T08:20:07;20.77;;;9.18;;
24383;SDS011;12504;52.870;8.798;2023-02-18T08:22:36;21.25;;;8.05;;
24383;SDS011;12504;52.870;8.798;2023-02-18T08:25:05;19.83;;;7.35;;
24383;SDS011;12504;52.870;8.798;2023-02-18T08:27:32;13.85;;;5.88;;
24383;SDS011;12504;52.870;8.798;2023-02-18T08:30:00;14.75;;;7.18;;
24383;SDS011;12504;52.870;8.798;2023-02-18T08:32:27;13.82;;;6.15;;
24383;SDS011;12504;52.870;8.798;2023-02-18T08:34:54;13.98;;;5.80;;
24383;SDS011;12504;52.870;8.798;2023-02-18T08:37:21;11.30;;;5.40;;
24383;SDS011;12504;52.870;8.798;2023-02-18T08:39:48;9.95;;;5.03;;
24383;SDS011;12504;52.870;8.798;2023-02-18T08:42:15;9.93;;;4.82;;
24383;SDS011;12504;52.870;8.798;2023-02-18T08:44:45;8.23;;;4.33;;
24383;SDS011;12504;52.870;8.798;2023-02-18T08:47:14;9.35;;;4.47;;
24383;SDS011;12504;52.870;8.798;2023-02-18T08:49:43;9.68;;;4.30;;
24383;SDS011;12504;52.870;8.798;2023-02-18T08:52:09;9.65;;;4.72;;
24383;SDS011;12504;52.870;8.798;2023-02-18T08:54:38;9.40;;;4.32;;
24383;SDS011;12504;52.870;8.798;2023-02-18T08:57:05;10.43;;;4.53;;
24383;SDS011;12504;52.870;8.798;2023-02-18T08:59:32;8.77;;;4.85;;
24383;SDS011;12504;52.870;8.798;2023-02-18T09:02:00;12.02;;;4.50;;
24383;SDS011;12504;52.870;8.798;2023-02-18T09:04:26;6.05;;;3.67;;
24383;SDS011;12504;52.870;8.798;2023-02-18T09:06:52;6.25;;;3.92;;
24383;SDS011;12504;52.870;8.798;2023-02-18T09:09:19;9.32;;;4.00;;
24383;SDS011;12504;52.870;8.798;2023-02-18T09:11:49;6.90;;;3.08;;
24383;SDS011;12504;52.870;8.798;2023-02-18T09:14:15;5.72;;;3.13;;
24383;SDS011;12504;52.870;8.798;2023-02-18T09:16:42;6.38;;;3.67;;
24383;SDS011;12504;52.870;8.798;2023-02-18T09:19:08;6.63;;;2.90;;
24383;SDS011;12504;52.870;8.798;2023-02-18T09:21:34;4.38;;;2.83;;
24383;SDS011;12504;52.870;8.798;2023-02-18T09:24:01;4.75;;;2.53;;
24383;SDS011;12504;52.870;8.798;2023-02-18T09:26:27;4.80;;;2.63;;
24383;SDS011;12504;52.870;8.798;2023-02-18T09:28:54;6.85;;;3.08;;
24383;SDS011;12504;52.870;8.798;2023-02-18T09:31:21;3.90;;;2.15;;
24383;SDS011;12504;52.870;8.798;2023-02-18T09:33:50;4.75;;;2.22;;
24383;SDS011;12504;52.870;8.798;2023-02-18T09:36:34;5.00;;;2.35;;
24383;SDS011;12504;52.870;8.798;2023-02-18T09:38:59;3.83;;;2.40;;
24383;SDS011;12504;52.870;8.798;2023-02-18T09:41:44;5.07;;;2.00;;
24383;SDS011;12504;52.870;8.798;2023-02-18T09:44:15;5.82;;;2.60;;
24383;SDS011;12504;52.870;8.798;2023-02-18T09:49:17;4.10;;;2.53;;
24383;SDS011;12504;52.870;8.798;2023-02-18T09:51:46;4.75;;;1.88;;
24383;SDS011;12504;52.870;8.798;2023-02-18T09:54:14;7.22;;;2.47;;
24383;SDS011;12504;52.870;8.798;2023-02-18T09:56:42;6.75;;;3.13;;
24383;SDS011;12504;52.870;8.798;2023-02-18T09:59:11;6.43;;;4.35;;
24383;SDS011;12504;52.870;8.798;2023-02-18T10:01:43;6.93;;;3.30;;
24383;SDS011;12504;52.870;8.798;2023-02-18T10:04:22;7.85;;;4.28;;
24383;SDS011;12504;52.870;8.798;2023-02-18T10:06:54;7.25;;;4.00;;
24383;SDS011;12504;52.870;8.798;2023-02-18T10:09:24;8.02;;;4.40;;
24383;SDS011;12504;52.870;8.798;2023-02-18T10:12:09;12.20;;;4.30;;
24383;SDS011;12504;52.870;8.798;2023-02-18T10:14:40;6.85;;;4.03;;
24383;SDS011;12504;52.870;8.798;2023-02-18T10:17:09;9.60;;;4.80;;
24383;SDS011;12504;52.870;8.798;2023-02-18T10:19:38;9.50;;;3.80;;
24383;SDS011;12504;52.870;8.798;2023-02-18T10:22:07;8.63;;;4.32;;
24383;SDS011;12504;52.870;8.798;2023-02-18T10:27:07;9.63;;;4.50;;
24383;SDS011;12504;52.870;8.798;2023-02-18T10:29:34;9.15;;;4.30;;
24383;SDS011;12504;52.870;8.798;2023-02-18T10:32:08;8.95;;;4.20;;
24383;SDS011;12504;52.870;8.798;2023-02-18T10:38:12;8.30;;;4.25;;
24383;SDS011;12504;52.870;8.798;2023-02-18T10:46:44;8.77;;;4.05;;
24383;SDS011;12504;52.870;8.798;2023-02-18T10:52:17;9.00;;;3.85;;
24383;SDS011;12504;52.870;8.798;2023-02-18T10:57:24;9.77;;;4.65;;
24383;SDS011;12504;52.870;8.798;2023-02-18T10:59:58;9.50;;;3.92;;
24383;SDS011;12504;52.870;8.798;2023-02-18T11:02:30;8.07;;;4.38;;
24383;SDS011;12504;52.870;8.798;2023-02-18T11:04:57;8.05;;;4.00;;
24383;SDS011;12504;52.870;8.798;2023-02-18T11:07:32;6.90;;;3.05;;
24383;SDS011;12504;52.870;8.798;2023-02-18T11:10:00;5.15;;;2.50;;
24383;SDS011;12504;52.870;8.798;2023-02-18T11:17:40;9.50;;;2.35;;
24383;SDS011;12504;52.870;8.798;2023-02-18T11:20:27;8.30;;;3.00;;
24383;SDS011;12504;52.870;8.798;2023-02-18T11:25:30;5.07;;;2.60;;
24383;SDS011;12504;52.870;8.798;2023-02-18T11:28:00;5.03;;;2.15;;
24383;SDS011;12504;52.870;8.798;2023-02-18T11:30:41;4.35;;;2.08;;
24383;SDS011;12504;52.870;8.798;2023-02-18T11:33:22;4.40;;;1.70;;
24383;SDS011;12504;52.870;8.798;2023-02-18T11:35:56;2.25;;;1.27;;
24383;SDS011;12504;52.870;8.798;2023-02-18T11:38:43;4.07;;;1.60;;
24383;SDS011;12504;52.870;8.798;2023-02-18T11:41:12;3.35;;;2.45;;
24383;SDS011;12504;52.870;8.798;2023-02-18T11:43:41;5.00;;;2.73;;
24383;SDS011;12504;52.870;8.798;2023-02-18T11:46:11;2.38;;;1.85;;
24383;SDS011;12504;52.870;8.798;2023-02-18T11:48:40;2.60;;;1.50;;
24383;SDS011;12504;52.870;8.798;2023-02-18T11:51:25;3.05;;;1.42;;
24383;SDS011;12504;52.870;8.798;2023-02-18T11:53:57;4.30;;;2.20;;
24383;SDS011;12504;52.870;8.798;2023-02-18T11:56:54;4.65;;;1.75;;
24383;SDS011;12504;52.870;8.798;2023-02-18T11:59:29;3.30;;;1.98;;
24383;SDS011;12504;52.870;8.798;2023-02-18T12:04:37;4.88;;;1.92;;
24383;SDS011;12504;52.870;8.798;2023-02-18T12:07:24;3.97;;;2.08;;
24383;SDS011;12504;52.870;8.798;2023-02-18T12:09:57;4.13;;;2.03;;
24383;SDS011;12504;52.870;8.798;2023-02-18T12:15:51;5.35;;;3.13;;
24383;SDS011;12504;52.870;8.798;2023-02-18T12:32:09;12.13;;;5.53;;
24383;SDS011;12504;52.870;8.798;2023-02-18T12:34:55;14.10;;;5.38;;
24383;SDS011;12504;52.870;8.798;2023-02-18T12:37:39;18.85;;;6.05;;
24383;SDS011;12504;52.870;8.798;2023-02-18T12:51:47;9.23;;;4.93;;
24383;SDS011;12504;52.870;8.798;2023-02-18T13:03:05;13.60;;;5.90;;
24383;SDS011;12504;52.870;8.798;2023-02-18T13:14:12;16.38;;;5.38;;
24383;SDS011;12504;52.870;8.798;2023-02-18T13:16:45;17.40;;;6.78;;
24383;SDS011;12504;52.870;8.798;2023-02-18T13:21:57;13.63;;;5.43;;
24383;SDS011;12504;52.870;8.798;2023-02-18T13:24:32;14.35;;;4.65;;
24383;SDS011;12504;52.870;8.798;2023-02-18T13:27:06;13.57;;;4.45;;
24383;SDS011;12504;52.870;8.798;2023-02-18T13:29:35;19.65;;;6.05;;
24383;SDS011;12504;52.870;8.798;2023-02-18T13:38:18;11.15;;;4.18;;
24383;SDS011;12504;52.870;8.798;2023-02-18T13:41:03;14.23;;;5.55;;
24383;SDS011;12504;52.870;8.798;2023-02-18T13:43:31;12.07;;;4.43;;
24383;SDS011;12504;52.870;8.798;2023-02-18T13:48:46;8.50;;;4.00;;
24383;SDS011;12504;52.870;8.798;2023-02-18T13:51:26;10.98;;;4.18;;
24383;SDS011;12504;52.870;8.798;2023-02-18T13:54:11;19.50;;;4.70;;
24383;SDS011;12504;52.870;8.798;2023-02-18T13:56:46;13.88;;;5.28;;
24383;SDS011;12504;52.870;8.798;2023-02-18T14:04:52;10.25;;;4.10;;
24383;SDS011;12504;52.870;8.798;2023-02-18T14:07:36;16.98;;;4.45;;
24383;SDS011;12504;52.870;8.798;2023-02-18T14:25:50;10.77;;;4.70;;
24383;SDS011;12504;52.870;8.798;2023-02-18T14:31:04;12.30;;;5.03;;
24383;SDS011;12504;52.870;8.798;2023-02-18T14:33:36;9.40;;;3.63;;
24383;SDS011;12504;52.870;8.798;2023-02-18T14:38:54;9.43;;;4.68;;
24383;SDS011;12504;52.870;8.798;2023-02-18T14:44:19;12.82;;;4.03;;
24383;SDS011;12504;52.870;8.798;2023-02-18T14:49:56;12.07;;;4.03;;
24383;SDS011;12504;52.870;8.798;2023-02-18T14:52:30;24.98;;;4.35;;
24383;SDS011;12504;52.870;8.798;2023-02-18T14:55:01;9.80;;;4.75;;
24383;SDS011;12504;52.870;8.798;2023-02-18T14:57:32;9.30;;;3.47;;
24383;SDS011;12504;52.870;8.798;2023-02-18T15:00:21;6.55;;;3.63;;
24383;SDS011;12504;52.870;8.798;2023-02-18T15:02:50;8.60;;;3.42;;
24383;SDS011;12504;52.870;8.798;2023-02-18T15:05:19;15.75;;;4.20;;
24383;SDS011;12504;52.870;8.798;2023-02-18T15:07:57;9.33;;;4.20;;
24383;SDS011;12504;52.870;8.798;2023-02-18T15:10:33;11.98;;;3.75;;
24383;SDS011;12504;52.870;8.798;2023-02-18T15:13:02;17.85;;;3.78;;
24383;SDS011;12504;52.870;8.798;2023-02-18T15:15:32;11.50;;;5.63;;
24383;SDS011;12504;52.870;8.798;2023-02-18T15:18:00;13.15;;;4.63;;
24383;SDS011;12504;52.870;8.798;2023-02-18T15:20:28;7.30;;;3.88;;
24383;SDS011;12504;52.870;8.798;2023-02-18T15:22:57;13.50;;;4.47;;
24383;SDS011;12504;52.870;8.798;2023-02-18T15:25:24;8.75;;;4.38;;
24383;SDS011;12504;52.870;8.798;2023-02-18T15:27:50;12.68;;;4.07;;
24383;SDS011;12504;52.870;8.798;2023-02-18T15:35:39;10.05;;;3.20;;
24383;SDS011;12504;52.870;8.798;2023-02-18T15:38:12;16.98;;;3.65;;
24383;SDS011;12504;52.870;8.798;2023-02-18T15:40:40;7.35;;;3.08;;
24383;SDS011;12504;52.870;8.798;2023-02-18T15:43:06;9.43;;;2.60;;
24383;SDS011;12504;52.870;8.798;2023-02-18T15:45:34;13.48;;;3.15;;
24383;SDS011;12504;52.870;8.798;2023-02-18T15:48:02;7.95;;;1.95;;
24383;SDS011;12504;52.870;8.798;2023-02-18T15:50:36;10.95;;;4.90;;
24383;SDS011;12504;52.870;8.798;2023-02-18T15:53:13;4.35;;;2.10;;
24383;SDS011;12504;52.870;8.798;2023-02-18T15:55:42;7.32;;;2.90;;
24383;SDS011;12504;52.870;8.798;2023-02-18T15:58:26;10.13;;;3.58;;
24383;SDS011;12504;52.870;8.798;2023-02-18T16:00:56;15.82;;;3.45;;
24383;SDS011;12504;52.870;8.798;2023-02-18T16:03:30;12.15;;;3.20;;
24383;SDS011;12504;52.870;8.798;2023-02-18T16:06:15;10.50;;;4.53;;
24383;SDS011;12504;52.870;8.798;2023-02-18T16:11:52;16.80;;;5.55;;
24383;SDS011;12504;52.870;8.798;2023-02-18T16:14:27;10.80;;;4.18;;
24383;SDS011;12504;52.870;8.798;2023-02-18T16:16:59;8.52;;;3.35;;
24383;SDS011;12504;52.870;8.798;2023-02-18T16:19:31;9.77;;;3.55;;
24383;SDS011;12504;52.870;8.798;2023-02-18T16:21:58;12.05;;;3.58;;
24383;SDS011;12504;52.870;8.798;2023-02-18T16:24:30;9.48;;;3.55;;
24383;SDS011;12504;52.870;8.798;2023-02-18T16:27:05;7.93;;;4.63;;
24383;SDS011;12504;52.870;8.798;2023-02-18T16:29:38;10.05;;;2.60;;
24383;SDS011;12504;52.870;8.798;2023-02-18T16:32:05;11.77;;;3.40;;
24383;SDS011;12504;52.870;8.798;2023-02-18T16:34:31;8.40;;;2.65;;
24383;SDS011;12504;52.870;8.798;2023-02-18T16:36:57;7.57;;;2.30;;
24383;SDS011;12504;52.870;8.798;2023-02-18T16:39:41;7.35;;;2.85;;
24383;SDS011;12504;52.870;8.798;2023-02-18T16:42:08;8.13;;;2.70;;
24383;SDS011;12504;52.870;8.798;2023-02-18T16:44:37;13.45;;;4.57;;
24383;SDS011;12504;52.870;8.798;2023-02-18T16:47:03;15.57;;;4.75;;
24383;SDS011;12504;52.870;8.798;2023-02-18T16:49:31;13.85;;;3.10;;
24383;SDS011;12504;52.870;8.798;2023-02-18T16:51:59;8.93;;;2.08;;
24383;SDS011;12504;52.870;8.798;2023-02-18T16:54:29;7.53;;;2.17;;
24383;SDS011;12504;52.870;8.798;2023-02-18T16:56:55;8.10;;;2.92;;
24383;SDS011;12504;52.870;8.798;2023-02-18T16:59:21;10.98;;;2.72;;
24383;SDS011;12504;52.870;8.798;2023-02-18T17:01:46;15.10;;;4.43;;
24383;SDS011;12504;52.870;8.798;2023-02-18T17:04:16;8.80;;;3.22;;
24383;SDS011;12504;52.870;8.798;2023-02-18T17:06:44;6.78;;;2.83;;
24383;SDS011;12504;52.870;8.798;2023-02-18T17:09:11;8.77;;;2.67;;
24383;SDS011;12504;52.870;8.798;2023-02-18T17:11:40;17.02;;;3.13;;
24383;SDS011;12504;52.870;8.798;2023-02-18T17:14:08;11.45;;;3.38;;
24383;SDS011;12504;52.870;8.798;2023-02-18T17:16:38;7.88;;;3.33;;
24383;SDS011;12504;52.870;8.798;2023-02-18T17:19:03;14.73;;;3.22;;
24383;SDS011;12504;52.870;8.798;2023-02-18T17:21:29;10.30;;;3.30;;
24383;SDS011;12504;52.870;8.798;2023-02-18T17:23:55;8.85;;;4.28;;
24383;SDS011;12504;52.870;8.798;2023-02-18T17:26:25;11.50;;;4.05;;
24383;SDS011;12504;52.870;8.798;2023-02-18T17:28:52;9.40;;;2.58;;
24383;SDS011;12504;52.870;8.798;2023-02-18T17:31:23;12.50;;;2.55;;
24383;SDS011;12504;52.870;8.798;2023-02-18T17:33:56;12.02;;;2.10;;
24383;SDS011;12504;52.870;8.798;2023-02-18T17:36:24;9.18;;;3.38;;
24383;SDS011;12504;52.870;8.798;2023-02-18T17:38:51;8.20;;;2.35;;
24383;SDS011;12504;52.870;8.798;2023-02-18T17:41:17;12.23;;;2.30;;
24383;SDS011;12504;52.870;8.798;2023-02-18T17:43:43;7.50;;;2.53;;